Time;durP1;ratioP1;P1;durP2;ratioP2;P2;SDS_P1;SDS_P2;PMS_P1;PMS_P2;Temp;Humidity;BMP_temperature;BMP_pressure;BME280_temperature;BME280_humidity;BME280_pressure;Samples;Min_cycle;Max_cycle;Signal;HPM_P1;HPM_P2
2023/07/17 00:00:15;;;;;;;5.55;4.68;;;;;;;;;;9986688;28;20042;-48
2023/07/17 00:05:10;;;;;;;;;;;;;;;;;;9980532;28;20054;-48
2023/07/17 00:10:03;;;;;;;5.38;4.88;;;;;;;;;;9983951;28;20328;-47
2023/07/17 00:14:56;;;;;;;6.57;4.85;;;;;;;;;;9983674;28;20133;-46
2023/07/17 00:19:55;;;;;;;6.53;5.32;;;;;;;;;;9984391;28;20069;-48
2023/07/17 00:24:47;;;;;;;4.97;4.47;;;;;;;;;;9984820;28;20105;-47
2023/07/17 00:29:40;;;;;;;7.90;5.80;;;;;;;;;;9985780;28;20507;-47
2023/07/17 00:34:32;;;;;;;5.57;4.75;;;;;;;;;;9966648;28;20046;-47
2023/07/17 00:39:24;;;;;;;5.47;4.97;;;;;;;;;;9986002;28;20096;-47
2023/07/17 00:44:17;;;;;;;6.60;5.53;;;;;;;;;;9985301;28;20035;-46
2023/07/17 00:49:09;;;;;;;6.22;4.93;;;;;;;;;;9991985;28;20038;-47
2023/07/17 00:54:01;;;;;;;6.70;4.28;;;;;;;;;;9991854;28;20105;-45
2023/07/17 00:58:53;;;;;;;5.57;4.50;;;;;;;;;;9974242;28;20042;-47
2023/07/17 01:03:45;;;;;;;6.57;5.60;;;;;;;;;;9990329;28;20051;-45
2023/07/17 01:08:37;;;;;;;5.60;4.78;;;;;;;;;;9991482;28;20046;-46
2023/07/17 01:13:29;;;;;;;5.30;4.80;;;;;;;;;;9991360;28;20085;-47
2023/07/17 01:18:21;;;;;;;5.78;4.40;;;;;;;;;;9989880;28;20092;-45
2023/07/17 01:23:13;;;;;;;5.72;5.10;;;;;;;;;;9988747;28;20038;-45
2023/07/17 01:28:05;;;;;;;5.05;4.55;;;;;;;;;;9990263;28;20065;-48
2023/07/17 01:32:57;;;;;;;5.57;4.78;;;;;;;;;;9989845;28;20034;-44
2023/07/17 01:37:49;;;;;;;5.53;4.90;;;;;;;;;;9989270;28;20547;-48
2023/07/17 01:42:40;;;;;;;5.00;4.50;;;;;;;;;;9991373;28;20085;-43
2023/07/17 01:47:32;;;;;;;5.95;4.93;;;;;;;;;;9989069;28;20074;-46
2023/07/17 01:52:24;;;;;;;5.38;4.85;;;;;;;;;;9990261;28;20483;-47
2023/07/17 01:57:16;;;;;;;5.95;4.63;;;;;;;;;;9987073;28;20046;-46
2023/07/17 02:02:09;;;;;;;6.38;5.05;;;;;;;;;;9989449;28;20042;-48
2023/07/17 02:07:03;;;;;;;10.00;4.70;;;;;;;;;;9984698;28;20451;-46
2023/07/17 02:11:55;;;;;;;6.40;4.43;;;;;;;;;;9989621;28;20054;-48
2023/07/17 02:16:47;;;;;;;4.82;4.28;;;;;;;;;;9989675;28;20054;-46
2023/07/17 02:21:39;;;;;;;5.75;4.50;;;;;;;;;;9984728;28;20038;-47
2023/07/17 02:26:31;;;;;;;5.97;4.18;;;;;;;;;;9988760;28;20424;-43
2023/07/17 02:31:23;;;;;;;4.80;4.30;;;;;;;;;;9987455;28;20144;-46
2023/07/17 02:36:15;;;;;;;4.50;4.10;;;;;;;;;;9970840;28;20081;-45
2023/07/17 02:41:08;;;;;;;5.10;4.60;;;;;;;;;;9987421;28;20043;-50
2023/07/17 02:46:00;;;;;;;4.70;4.30;;;;;;;;;;9986584;28;20038;-48
2023/07/17 02:50:52;;;;;;;6.18;4.13;;;;;;;;;;9979665;28;20449;-43
2023/07/17 02:55:43;;;;;;;5.57;4.78;;;;;;;;;;9986378;28;20129;-44
2023/07/17 03:00:36;;;;;;;5.70;4.40;;;;;;;;;;9984358;28;20054;-47
2023/07/17 03:05:28;;;;;;;7.25;5.10;;;;;;;;;;9985176;28;20042;-46
2023/07/17 03:10:21;;;;;;;4.85;4.35;;;;;;;;;;9983715;28;20061;-46
2023/07/17 03:15:14;;;;;;;5.10;4.63;;;;;;;;;;9986493;28;20053;-45
2023/07/17 03:20:08;;;;;;;5.85;4.40;;;;;;;;;;9980155;28;20038;-47
2023/07/17 03:25:05;;;;;;;7.70;5.13;;;;;;;;;;9984978;28;20065;-47
2023/07/17 03:29:57;;;;;;;6.45;4.25;;;;;;;;;;9967843;28;20042;-45
2023/07/17 03:34:49;;;;;;;4.88;3.70;;;;;;;;;;9982937;28;20057;-48
2023/07/17 03:39:41;;;;;;;7.78;4.63;;;;;;;;;;9983279;28;20057;-47
2023/07/17 03:44:32;;;;;;;6.78;4.32;;;;;;;;;;9986023;28;20372;-47
2023/07/17 03:49:25;;;;;;;5.43;4.40;;;;;;;;;;9967868;28;20046;-45
2023/07/17 03:54:17;;;;;;;9.00;4.28;;;;;;;;;;9982631;28;20469;-45
2023/07/17 03:59:10;;;;;;;5.47;4.32;;;;;;;;;;9983903;28;20412;-47
2023/07/17 04:04:03;;;;;;;4.60;4.20;;;;;;;;;;9981716;28;20380;-47
2023/07/17 04:08:56;;;;;;;5.10;3.95;;;;;;;;;;9981682;28;20503;-46
2023/07/17 04:13:48;;;;;;;4.75;3.90;;;;;;;;;;9985059;28;20097;-48
2023/07/17 04:18:40;;;;;;;5.55;4.82;;;;;;;;;;9967926;28;20431;-47
2023/07/17 04:23:32;;;;;;;5.97;4.30;;;;;;;;;;9987899;28;20053;-47
2023/07/17 04:28:27;;;;;;;4.90;4.20;;;;;;;;;;9991889;28;20047;-46
2023/07/17 04:33:20;;;;;;;5.20;4.35;;;;;;;;;;9987319;28;20057;-47
2023/07/17 04:38:12;;;;;;;4.25;3.85;;;;;;;;;;9992481;28;20048;-45
2023/07/17 04:43:05;;;;;;;4.32;3.92;;;;;;;;;;9990854;28;20117;-46
2023/07/17 04:47:58;;;;;;;4.35;3.95;;;;;;;;;;9989455;28;20543;-45
2023/07/17 04:52:51;;;;;;;4.20;3.80;;;;;;;;;;9989358;28;20066;-47
2023/07/17 04:57:43;;;;;;;5.82;4.57;;;;;;;;;;9973518;28;20137;-47
2023/07/17 05:02:36;;;;;;;7.05;4.28;;;;;;;;;;9974044;28;20043;-47
2023/07/17 05:07:28;;;;;;;5.07;4.18;;;;;;;;;;9972625;28;20046;-46
2023/07/17 05:12:21;;;;;;;5.32;4.78;;;;;;;;;;9992083;28;20496;-46
2023/07/17 05:17:16;;;;;;;4.97;4.35;;;;;;;;;;9989689;28;20366;-46
2023/07/17 05:22:07;;;;;;;4.70;4.15;;;;;;;;;;9969028;28;20093;-46
2023/07/17 05:27:00;;;;;;;4.40;4.00;;;;;;;;;;9957579;28;20532;-44
2023/07/17 05:31:52;;;;;;;5.03;4.18;;;;;;;;;;9971846;28;20508;-45
2023/07/17 05:36:44;;;;;;;5.82;4.22;;;;;;;;;;9969558;28;20439;-45
2023/07/17 05:41:36;;;;;;;6.05;4.30;;;;;;;;;;9989568;28;20042;-46
2023/07/17 05:46:28;;;;;;;4.10;3.60;;;;;;;;;;9986110;28;20097;-45
2023/07/17 05:51:20;;;;;;;5.20;4.38;;;;;;;;;;9981594;28;20038;-46
2023/07/17 05:56:14;;;;;;;7.03;4.38;;;;;;;;;;9965703;28;20381;-49
2023/07/17 06:01:07;;;;;;;5.95;4.53;;;;;;;;;;9971239;28;20149;-46
2023/07/17 06:05:59;;;;;;;7.07;4.10;;;;;;;;;;9979364;28;20065;-47
2023/07/17 06:10:51;;;;;;;4.60;4.07;;;;;;;;;;9987069;28;20053;-45
2023/07/17 06:15:43;;;;;;;5.28;4.18;;;;;;;;;;9987626;28;20096;-46
2023/07/17 06:20:35;;;;;;;7.82;4.63;;;;;;;;;;9988502;28;20052;-44
2023/07/17 06:25:27;;;;;;;4.90;4.43;;;;;;;;;;9973544;28;20089;-47
2023/07/17 06:30:20;;;;;;;8.10;4.53;;;;;;;;;;9967604;28;20133;-46
2023/07/17 06:35:12;;;;;;;4.85;4.38;;;;;;;;;;9965203;28;20058;-47
2023/07/17 06:40:05;;;;;;;4.47;3.90;;;;;;;;;;9968159;28;20138;-45
2023/07/17 06:44:56;;;;;;;4.57;3.97;;;;;;;;;;9972333;28;20054;-48
2023/07/17 06:49:52;;;;;;;5.00;4.32;;;;;;;;;;9986383;28;20384;-46
2023/07/17 06:54:44;;;;;;;4.45;4.05;;;;;;;;;;9981741;28;20105;-44
2023/07/17 06:59:52;;;;;;;5.22;4.00;;;;;;;;;;9978610;28;20145;-48
2023/07/17 07:04:43;;;;;;;5.18;4.60;;;;;;;;;;9982489;28;20073;-46
2023/07/17 07:09:35;;;;;;;5.70;4.72;;;;;;;;;;9967309;28;20448;-47
2023/07/17 07:14:27;;;;;;;5.60;4.35;;;;;;;;;;9971039;28;20480;-48
2023/07/17 07:19:19;;;;;;;6.65;4.22;;;;;;;;;;9970463;28;20061;-46
2023/07/17 07:24:11;;;;;;;8.65;4.53;;;;;;;;;;9969866;28;20134;-46
2023/07/17 07:29:03;;;;;;;4.75;4.05;;;;;;;;;;9968411;28;20051;-46
2023/07/17 07:33:55;;;;;;;4.40;4.00;;;;;;;;;;9968532;28;20050;-46
2023/07/17 07:38:46;;;;;;;5.20;4.25;;;;;;;;;;9967053;28;20419;-44
2023/07/17 07:43:38;;;;;;;5.93;4.00;;;;;;;;;;9966941;28;20093;-45
2023/07/17 07:48:31;;;;;;;6.55;4.47;;;;;;;;;;9965870;28;20088;-51
2023/07/17 07:53:23;;;;;;;5.15;4.47;;;;;;;;;;9969457;28;20042;-49
2023/07/17 07:58:15;;;;;;;5.07;4.15;;;;;;;;;;9967013;28;20137;-45
2023/07/17 08:03:06;;;;;;;5.10;4.22;;;;;;;;;;9967813;28;20092;-42
2023/07/17 08:07:58;;;;;;;5.65;3.67;;;;;;;;;;9977124;28;20105;-46
2023/07/17 08:12:50;;;;;;;4.72;4.32;;;;;;;;;;9980691;28;20054;-48
2023/07/17 08:17:42;;;;;;;4.88;4.32;;;;;;;;;;9983928;28;20097;-46
2023/07/17 08:22:34;;;;;;;4.80;4.18;;;;;;;;;;9980689;28;20472;-44
2023/07/17 08:27:26;;;;;;;5.03;3.80;;;;;;;;;;9986757;28;20133;-47
2023/07/17 08:32:18;;;;;;;4.20;3.80;;;;;;;;;;9985276;28;20048;-46
2023/07/17 08:37:09;;;;;;;4.80;4.40;;;;;;;;;;9985051;28;20532;-46
2023/07/17 08:42:01;;;;;;;4.15;3.75;;;;;;;;;;9984745;28;20042;-42
2023/07/17 08:46:53;;;;;;;9.05;4.78;;;;;;;;;;9986548;28;20508;-46
2023/07/17 08:51:49;;;;;;;6.30;5.70;;;;;;;;;;9985536;28;20089;-46
2023/07/17 08:56:42;;;;;;;4.65;4.25;;;;;;;;;;9985627;28;20050;-45
2023/07/17 09:01:34;;;;;;;4.13;3.65;;;;;;;;;;9985783;28;20046;-42
2023/07/17 09:06:27;;;;;;;4.97;3.67;;;;;;;;;;9986475;28;20054;-42
2023/07/17 09:11:19;;;;;;;3.95;3.55;;;;;;;;;;9992765;28;20462;-45
2023/07/17 09:16:23;;;;;;;4.78;4.25;;;;;;;;;;9992733;28;20054;-46
2023/07/17 09:21:22;;;;;;;4.75;4.30;;;;;;;;;;9996789;28;20101;-45
2023/07/17 09:26:17;;;;;;;4.68;4.28;;;;;;;;;;9980216;28;20097;-45
2023/07/17 09:31:09;;;;;;;4.38;3.92;;;;;;;;;;9989084;28;20081;-46
2023/07/17 09:36:01;;;;;;;4.50;4.07;;;;;;;;;;9988491;28;20129;-46
2023/07/17 09:40:53;;;;;;;4.15;3.75;;;;;;;;;;9988113;28;20062;-45
2023/07/17 09:45:45;;;;;;;4.15;3.65;;;;;;;;;;9986892;28;20138;-47
2023/07/17 09:50:37;;;;;;;3.88;3.42;;;;;;;;;;9987962;28;20054;-47
2023/07/17 09:55:30;;;;;;;3.55;3.25;;;;;;;;;;9976275;28;20039;-41
2023/07/17 10:00:24;;;;;;;4.85;4.18;;;;;;;;;;9956859;28;20055;-46
2023/07/17 10:05:16;;;;;;;4.15;3.75;;;;;;;;;;9976274;28;20053;-42
2023/07/17 10:10:09;;;;;;;4.38;3.42;;;;;;;;;;9966975;28;20157;-43
2023/07/17 10:15:01;;;;;;;4.03;3.55;;;;;;;;;;9986934;28;20046;-42
2023/07/17 10:20:15;;;;;;;6.28;3.55;;;;;;;;;;9985794;28;20450;-43
2023/07/17 10:25:19;;;;;;;4.47;3.92;;;;;;;;;;9974008;28;20133;-46
2023/07/17 10:30:25;;;;;;;4.30;3.88;;;;;;;;;;9981272;28;20054;-46
2023/07/17 10:35:19;;;;;;;3.85;3.47;;;;;;;;;;9987410;28;20046;-46
2023/07/17 10:40:28;;;;;;;4.55;3.38;;;;;;;;;;9988434;28;20046;-46
2023/07/17 10:45:19;;;;;;;5.90;3.58;;;;;;;;;;9986605;28;20049;-46
2023/07/17 10:50:11;;;;;;;4.05;3.70;;;;;;;;;;9986115;28;20054;-47
2023/07/17 10:55:05;;;;;;;6.97;3.67;;;;;;;;;;9984062;28;20081;-50
2023/07/17 10:59:57;;;;;;;4.00;3.60;;;;;;;;;;9984023;28;20480;-47
2023/07/17 11:04:53;;;;;;;4.45;4.05;;;;;;;;;;9986161;28;20096;-45
2023/07/17 11:09:45;;;;;;;4.55;3.83;;;;;;;;;;9985687;28;20060;-47
2023/07/17 11:14:37;;;;;;;3.72;3.40;;;;;;;;;;9985033;28;20046;-46
2023/07/17 11:19:29;;;;;;;5.00;4.38;;;;;;;;;;9983090;28;20133;-46
2023/07/17 11:24:21;;;;;;;5.78;5.20;;;;;;;;;;9983617;28;20472;-48
2023/07/17 11:29:13;;;;;;;4.10;3.80;;;;;;;;;;9984288;28;20393;-47
2023/07/17 11:34:11;;;;;;;4.68;4.05;;;;;;;;;;9982141;28;20058;-46
2023/07/17 11:39:13;;;;;;;5.20;4.45;;;;;;;;;;9984028;28;20038;-46
2023/07/17 11:44:07;;;;;;;6.60;5.05;;;;;;;;;;9984163;28;20069;-46
2023/07/17 11:48:59;;;;;;;4.20;3.80;;;;;;;;;;9984762;28;20145;-45
2023/07/17 11:53:55;;;;;;;4.75;3.90;;;;;;;;;;9966161;28;20050;-46
2023/07/17 11:58:51;;;;;;;7.90;4.65;;;;;;;;;;9986378;28;20130;-47
2023/07/17 12:03:43;;;;;;;5.82;3.80;;;;;;;;;;9983829;28;20133;-46
2023/07/17 12:08:37;;;;;;;5.05;3.70;;;;;;;;;;9978102;28;20039;-43
2023/07/17 12:13:28;;;;;;;11.65;4.85;;;;;;;;;;9973346;28;20072;-46
2023/07/17 12:18:21;;;;;;;6.53;4.85;;;;;;;;;;9973746;28;20121;-48
2023/07/17 12:23:13;;;;;;;8.82;4.70;;;;;;;;;;9970390;28;20046;-46
2023/07/17 12:28:05;;;;;;;5.68;4.38;;;;;;;;;;9973354;28;20121;-45
2023/07/17 12:32:58;;;;;;;11.75;5.80;;;;;;;;;;9970448;28;20144;-47
2023/07/17 12:37:53;;;;;;;7.03;5.22;;;;;;;;;;9976891;28;20507;-47
2023/07/17 12:42:44;;;;;;;5.43;4.47;;;;;;;;;;9988796;28;20109;-47
2023/07/17 12:47:36;;;;;;;5.15;4.53;;;;;;;;;;9993559;28;20477;-46
2023/07/17 12:52:31;;;;;;;5.90;4.63;;;;;;;;;;9993020;28;20054;-46
2023/07/17 12:57:22;;;;;;;7.35;4.22;;;;;;;;;;9993790;28;20047;-52
2023/07/17 13:02:21;;;;;;;5.97;3.88;;;;;;;;;;9992610;28;20053;-45
2023/07/17 13:07:13;;;;;;;7.53;4.82;;;;;;;;;;9993352;28;20042;-46
2023/07/17 13:12:05;;;;;;;5.90;4.43;;;;;;;;;;9992961;28;20077;-47
2023/07/17 13:16:58;;;;;;;4.75;4.22;;;;;;;;;;9990948;28;20082;-46
2023/07/17 13:21:50;;;;;;;8.20;4.15;;;;;;;;;;9978200;28;20030;-45
2023/07/17 13:26:42;;;;;;;6.78;4.88;;;;;;;;;;9983831;28;20058;-46
2023/07/17 13:31:34;;;;;;;5.72;4.93;;;;;;;;;;9990336;28;20042;-45
2023/07/17 13:36:26;;;;;;;5.25;4.50;;;;;;;;;;9997616;28;20480;-48
2023/07/17 13:41:39;;;;;;;4.70;4.22;;;;;;;;;;9992589;28;20148;-48
2023/07/17 13:46:31;;;;;;;6.47;4.75;;;;;;;;;;9964944;28;20050;-45
2023/07/17 13:51:23;;;;;;;9.07;5.72;;;;;;;;;;9976777;28;20057;-45
2023/07/17 13:56:15;;;;;;;4.50;4.03;;;;;;;;;;9986546;28;20133;-44
2023/07/17 14:01:10;;;;;;;5.88;3.78;;;;;;;;;;9971760;28;20046;-45
2023/07/17 14:06:01;;;;;;;7.22;4.28;;;;;;;;;;9971468;28;20437;-46
2023/07/17 14:10:53;;;;;;;8.75;3.97;;;;;;;;;;9969923;28;20042;-48
2023/07/17 14:15:45;;;;;;;5.07;4.28;;;;;;;;;;9967060;28;20047;-45
2023/07/17 14:20:39;;;;;;;5.80;3.80;;;;;;;;;;9986026;28;20481;-45
2023/07/17 14:25:31;;;;;;;5.20;4.13;;;;;;;;;;9986810;28;20408;-42
2023/07/17 14:30:23;;;;;;;5.03;3.58;;;;;;;;;;9989400;28;20085;-44
2023/07/17 14:35:15;;;;;;;4.78;4.15;;;;;;;;;;9989582;28;20420;-44
2023/07/17 14:40:07;;;;;;;5.78;3.78;;;;;;;;;;9995599;28;20137;-45
2023/07/17 14:44:59;;;;;;;6.57;4.65;;;;;;;;;;9989264;28;20061;-45
2023/07/17 14:49:51;;;;;;;9.00;4.93;;;;;;;;;;9989545;28;20061;-45
2023/07/17 14:54:43;;;;;;;4.78;4.30;;;;;;;;;;9989042;28;20054;-47
2023/07/17 14:59:35;;;;;;;6.60;4.00;;;;;;;;;;9982514;28;20042;-44
2023/07/17 15:04:26;;;;;;;6.68;3.72;;;;;;;;;;9978184;28;20046;-46
2023/07/17 15:09:18;;;;;;;5.05;3.30;;;;;;;;;;9989670;28;20423;-45
2023/07/17 15:14:10;;;;;;;5.18;3.72;;;;;;;;;;9995398;28;20382;-43
2023/07/17 15:19:17;;;;;;;4.65;4.18;;;;;;;;;;9982500;28;20039;-42
2023/07/17 15:24:08;;;;;;;5.30;4.07;;;;;;;;;;9982414;28;20446;-44
2023/07/17 15:29:00;;;;;;;5.30;3.53;;;;;;;;;;9990739;28;20132;-45
2023/07/17 15:33:55;;;;;;;4.85;3.38;;;;;;;;;;9987811;28;20050;-45
2023/07/17 15:38:47;;;;;;;5.13;3.72;;;;;;;;;;9987355;28;20387;-46
2023/07/17 15:43:39;;;;;;;5.70;4.25;;;;;;;;;;9987666;28;20047;-44
2023/07/17 15:48:31;;;;;;;4.13;3.53;;;;;;;;;;9987763;28;21365;-47
2023/07/17 15:53:23;;;;;;;5.18;3.25;;;;;;;;;;9985527;28;20062;-44
2023/07/17 15:58:17;;;;;;;4.55;4.15;;;;;;;;;;9978359;28;20519;-42
2023/07/17 16:03:09;;;;;;;6.25;3.92;;;;;;;;;;9984769;28;20046;-45
2023/07/17 16:08:01;;;;;;;4.45;3.63;;;;;;;;;;9984111;28;20053;-46
2023/07/17 16:12:53;;;;;;;4.25;3.42;;;;;;;;;;9985072;28;20112;-43
2023/07/17 16:17:45;;;;;;;4.35;3.63;;;;;;;;;;9989181;28;20113;-49
2023/07/17 16:22:36;;;;;;;4.70;4.20;;;;;;;;;;9999201;28;20531;-43
2023/07/17 16:27:28;;;;;;;4.00;3.60;;;;;;;;;;9999713;28;20748;-48
2023/07/17 16:32:21;;;;;;;7.07;4.55;;;;;;;;;;9998288;28;20042;-46
2023/07/17 16:37:13;;;;;;;6.28;4.18;;;;;;;;;;9997524;28;20045;-52
2023/07/17 16:42:06;;;;;;;6.07;4.68;;;;;;;;;;9999249;28;20047;-45
2023/07/17 16:46:57;;;;;;;6.38;4.68;;;;;;;;;;9992980;28;20081;-44
2023/07/17 16:51:49;;;;;;;5.55;4.10;;;;;;;;;;9998117;28;20372;-49
2023/07/17 16:56:41;;;;;;;4.85;3.85;;;;;;;;;;9993316;28;20101;-46
2023/07/17 17:01:33;;;;;;;5.85;4.45;;;;;;;;;;9993456;28;20039;-49
2023/07/17 17:06:25;;;;;;;5.03;3.83;;;;;;;;;;9998444;28;20093;-47
2023/07/17 17:11:17;;;;;;;4.80;4.40;;;;;;;;;;10002574;28;20084;-49
2023/07/17 17:16:08;;;;;;;6.15;4.38;;;;;;;;;;9997212;28;20228;-49
2023/07/17 17:21:00;;;;;;;7.03;3.47;;;;;;;;;;9998149;28;20042;-49
2023/07/17 17:25:52;;;;;;;7.75;4.60;;;;;;;;;;10004234;28;20137;-48
2023/07/17 17:30:44;;;;;;;6.60;4.63;;;;;;;;;;9991119;28;20137;-48
2023/07/17 17:35:36;;;;;;;4.78;4.13;;;;;;;;;;9992965;28;20050;-49
2023/07/17 17:40:28;;;;;;;6.43;4.03;;;;;;;;;;9991867;28;21008;-48
2023/07/17 17:45:19;;;;;;;5.63;3.92;;;;;;;;;;9990346;28;20133;-51
2023/07/17 17:50:11;;;;;;;7.13;5.15;;;;;;;;;;9986835;28;20042;-53
2023/07/17 17:55:03;;;;;;;5.90;4.20;;;;;;;;;;9983979;28;20043;-49
2023/07/17 17:59:56;;;;;;;7.85;4.05;;;;;;;;;;9991519;28;20380;-48
2023/07/17 18:04:47;;;;;;;4.65;4.15;;;;;;;;;;9990707;28;20038;-46
2023/07/17 18:09:39;;;;;;;5.25;3.92;;;;;;;;;;9983225;28;20077;-47
2023/07/17 18:14:31;;;;;;;14.68;6.57;;;;;;;;;;9977350;28;20133;-50
2023/07/17 18:19:27;;;;;;;16.10;7.32;;;;;;;;;;9982803;28;20049;-50
2023/07/17 18:24:18;;;;;;;33.97;12.32;;;;;;;;;;9986593;28;20077;-47
2023/07/17 18:29:11;;;;;;;33.42;11.77;;;;;;;;;;9999001;28;20104;-49
2023/07/17 18:34:03;;;;;;;22.17;9.13;;;;;;;;;;9990750;28;20042;-49
2023/07/17 18:38:55;;;;;;;29.85;9.65;;;;;;;;;;9989587;28;20085;-49
2023/07/17 18:43:51;;;;;;;19.08;7.82;;;;;;;;;;9982803;28;20126;-46
2023/07/17 18:48:42;;;;;;;18.48;8.55;;;;;;;;;;9977010;28;20141;-46
2023/07/17 18:53:34;;;;;;;20.55;9.50;;;;;;;;;;9985411;28;20053;-51
2023/07/17 18:58:26;;;;;;;17.92;8.20;;;;;;;;;;9983127;28;20050;-49
2023/07/17 19:03:18;;;;;;;14.40;6.57;;;;;;;;;;9983746;28;20097;-49
2023/07/17 19:08:17;;;;;;;13.52;6.72;;;;;;;;;;9987963;28;20074;-49
2023/07/17 19:13:12;;;;;;;14.02;6.60;;;;;;;;;;9988200;28;20050;-46
2023/07/17 19:18:04;;;;;;;14.32;6.32;;;;;;;;;;9988530;28;20066;-50
2023/07/17 19:22:56;;;;;;;14.32;6.78;;;;;;;;;;9988109;28;20129;-55
2023/07/17 19:27:48;;;;;;;12.93;6.07;;;;;;;;;;9988446;28;20129;-50
2023/07/17 19:32:44;;;;;;;15.52;6.30;;;;;;;;;;9986833;28;20084;-52
2023/07/17 19:37:38;;;;;;;16.20;6.68;;;;;;;;;;9986109;28;20125;-51
2023/07/17 19:42:29;;;;;;;12.23;5.80;;;;;;;;;;9986633;28;20054;-50
2023/07/17 19:47:21;;;;;;;12.95;7.00;;;;;;;;;;9987986;28;20074;-51
2023/07/17 19:52:13;;;;;;;12.48;5.82;;;;;;;;;;9984891;28;20058;-51
2023/07/17 19:57:05;;;;;;;16.05;7.10;;;;;;;;;;9987183;28;20046;-50
2023/07/17 20:01:57;;;;;;;9.73;6.10;;;;;;;;;;9977216;28;20108;-52
2023/07/17 20:06:49;;;;;;;14.45;6.00;;;;;;;;;;9977848;28;20038;-48
2023/07/17 20:11:41;;;;;;;13.10;5.30;;;;;;;;;;9986316;28;20140;-51
2023/07/17 20:16:34;;;;;;;9.98;5.40;;;;;;;;;;9984847;28;20407;-48
2023/07/17 20:21:26;;;;;;;9.27;5.75;;;;;;;;;;9985561;28;20046;-53
2023/07/17 20:26:20;;;;;;;9.57;4.95;;;;;;;;;;9985926;28;20133;-49
2023/07/17 20:31:12;;;;;;;10.07;6.05;;;;;;;;;;9986537;28;20050;-50
2023/07/17 20:36:04;;;;;;;10.38;5.15;;;;;;;;;;9987240;28;20162;-50
2023/07/17 20:40:55;;;;;;;12.82;5.57;;;;;;;;;;9986110;28;20050;-52
2023/07/17 20:45:52;;;;;;;13.90;6.57;;;;;;;;;;9976293;28;20047;-52
2023/07/17 20:51:04;;;;;;;11.00;5.13;;;;;;;;;;9973763;28;20612;-54
2023/07/17 20:55:56;;;;;;;8.15;4.72;;;;;;;;;;9985554;28;20053;-52
2023/07/17 21:00:48;;;;;;;8.43;4.78;;;;;;;;;;9986117;28;20050;-51
2023/07/17 21:05:41;;;;;;;7.82;5.40;;;;;;;;;;9991610;28;20050;-51
2023/07/17 21:10:33;;;;;;;8.73;4.90;;;;;;;;;;9992562;28;20129;-50
2023/07/17 21:15:25;;;;;;;9.55;5.18;;;;;;;;;;9993217;28;20046;-45
2023/07/17 21:20:17;;;;;;;7.05;4.80;;;;;;;;;;9993288;28;20038;-53
2023/07/17 21:25:09;;;;;;;7.55;4.43;;;;;;;;;;9992590;28;20229;-51
2023/07/17 21:30:03;;;;;;;10.35;5.30;;;;;;;;;;9992816;28;20085;-49
2023/07/17 21:34:55;;;;;;;7.95;5.20;;;;;;;;;;9992357;28;20054;-49
2023/07/17 21:39:47;;;;;;;7.50;5.20;;;;;;;;;;9992302;28;20062;-53
2023/07/17 21:44:39;;;;;;;7.47;4.80;;;;;;;;;;9992460;28;20050;-50
2023/07/17 21:49:31;;;;;;;7.05;4.30;;;;;;;;;;9991884;28;20054;-51
2023/07/17 21:54:24;;;;;;;10.75;5.80;;;;;;;;;;9991338;28;20141;-50
2023/07/17 21:59:16;;;;;;;7.60;4.22;;;;;;;;;;9991776;28;20051;-53
2023/07/17 22:04:07;;;;;;;9.45;5.07;;;;;;;;;;9992495;28;20038;-51
2023/07/17 22:08:59;;;;;;;7.25;4.47;;;;;;;;;;9973436;28;20078;-51
2023/07/17 22:13:51;;;;;;;7.72;5.22;;;;;;;;;;9975987;28;20061;-50
2023/07/17 22:18:43;;;;;;;8.60;5.20;;;;;;;;;;9982045;28;20369;-50
2023/07/17 22:23:35;;;;;;;8.38;4.85;;;;;;;;;;9987167;28;20418;-47
2023/07/17 22:28:27;;;;;;;7.63;5.38;;;;;;;;;;9982279;28;20100;-50
2023/07/17 22:33:19;;;;;;;11.57;6.47;;;;;;;;;;9983947;28;20054;-48
2023/07/17 22:38:11;;;;;;;7.13;5.25;;;;;;;;;;9980423;28;20038;-47
2023/07/17 22:43:03;;;;;;;7.80;5.03;;;;;;;;;;9980139;28;20079;-47
2023/07/17 22:47:55;;;;;;;8.82;4.55;;;;;;;;;;9985415;28;20052;-45
2023/07/17 22:52:47;;;;;;;7.03;5.28;;;;;;;;;;9982882;28;20069;-47
2023/07/17 22:57:39;;;;;;;6.55;4.40;;;;;;;;;;9987345;28;20077;-46
2023/07/17 23:02:31;;;;;;;5.15;4.03;;;;;;;;;;9986483;28;20088;-48
2023/07/17 23:07:23;;;;;;;12.30;5.05;;;;;;;;;;9985797;28;20038;-47
2023/07/17 23:12:15;;;;;;;6.30;4.20;;;;;;;;;;10003107;28;20054;-47
2023/07/17 23:17:08;;;;;;;10.25;4.38;;;;;;;;;;9981594;28;20049;-48
2023/07/17 23:22:00;;;;;;;6.10;4.07;;;;;;;;;;9984771;28;20352;-47
2023/07/17 23:26:51;;;;;;;6.40;4.60;;;;;;;;;;9984282;28;20121;-48
2023/07/17 23:31:44;;;;;;;5.13;3.88;;;;;;;;;;9981712;28;20385;-51
2023/07/17 23:36:36;;;;;;;8.77;5.05;;;;;;;;;;9982461;28;20054;-51
2023/07/17 23:41:28;;;;;;;9.30;4.60;;;;;;;;;;9985744;28;20039;-47
2023/07/17 23:46:20;;;;;;;5.95;4.50;;;;;;;;;;9985251;28;20526;-48
2023/07/17 23:51:13;;;;;;;6.90;4.35;;;;;;;;;;9981420;28;20045;-47
2023/07/17 23:56:06;;;;;;;6.50;4.45;;;;;;;;;;9984648;28;20137;-44
